Seiling, Oklahoma
Current Conditions -  °F | °C
As of 11:35 PM on Thursday 30 Oct 2014 (Local Time) from KJWG Reporting Station
Clear Clear  
Wind Chill: 59°   Ceiling: Unl
Heat Index: 59°   Visibility: 10mi
Dew Point: 37°   Wind: 13mph
Humidity: 44%   Direction: 360°N
Pressure: 30.27"   Gusts: NA
Location:  36.15°N, 98.92°W
Report Text: KJWG 310435Z AUTO 36011KT 10SM CLR 15/03 A3027 RMK AO2 T01510030
Loading
Personal Weather Stations






























Interactive Weather Map
Tropical Storm Tracking
New forecast layout! Learn more

10-Day Weather Forecast

Advertisements
Track Severe Weather on mobile